sensor_id;sensor_type;location;lat;lon;timestamp;temperature;humidity
74359;DHT22;62792;46.236;6.040;2024-02-04T00:03:19;21.60;41.40
74359;DHT22;62792;46.236;6.040;2024-02-04T00:08:26;21.60;41.10
74359;DHT22;62792;46.236;6.040;2024-02-04T00:13:29;21.60;41.40
74359;DHT22;62792;46.236;6.040;2024-02-04T00:18:32;21.60;41.30
74359;DHT22;62792;46.236;6.040;2024-02-04T00:23:36;21.60;41.30
74359;DHT22;62792;46.236;6.040;2024-02-04T00:28:39;21.50;41.30
74359;DHT22;62792;46.236;6.040;2024-02-04T00:33:45;21.60;41.30
74359;DHT22;62792;46.236;6.040;2024-02-04T00:38:49;21.50;41.40
74359;DHT22;62792;46.236;6.040;2024-02-04T00:43:52;21.50;41.30
74359;DHT22;62792;46.236;6.040;2024-02-04T00:48:55;21.60;41.30
74359;DHT22;62792;46.236;6.040;2024-02-04T00:53:59;21.60;41.10
74359;DHT22;62792;46.236;6.040;2024-02-04T00:59:02;21.50;41.10
74359;DHT22;62792;46.236;6.040;2024-02-04T01:04:06;21.50;40.90
74359;DHT22;62792;46.236;6.040;2024-02-04T01:09:10;21.50;41.00
74359;DHT22;62792;46.236;6.040;2024-02-04T01:14:13;21.50;41.10
74359;DHT22;62792;46.236;6.040;2024-02-04T01:19:16;21.50;41.10
74359;DHT22;62792;46.236;6.040;2024-02-04T01:24:21;21.50;40.90
74359;DHT22;62792;46.236;6.040;2024-02-04T01:29:24;21.50;41.10
74359;DHT22;62792;46.236;6.040;2024-02-04T01:34:27;21.40;40.90
74359;DHT22;62792;46.236;6.040;2024-02-04T01:39:31;21.50;40.90
74359;DHT22;62792;46.236;6.040;2024-02-04T01:44:34;21.50;41.10
74359;DHT22;62792;46.236;6.040;2024-02-04T01:49:37;21.50;40.90
74359;DHT22;62792;46.236;6.040;2024-02-04T01:54:43;21.50;40.90
74359;DHT22;62792;46.236;6.040;2024-02-04T01:59:46;21.60;40.90
74359;DHT22;62792;46.236;6.040;2024-02-04T02:04:50;21.60;40.80
74359;DHT22;62792;46.236;6.040;2024-02-04T02:09:54;21.50;40.70
74359;DHT22;62792;46.236;6.040;2024-02-04T02:14:59;21.60;40.90
74359;DHT22;62792;46.236;6.040;2024-02-04T02:20:06;21.40;40.90
74359;DHT22;62792;46.236;6.040;2024-02-04T02:25:14;21.40;40.70
74359;DHT22;62792;46.236;6.040;2024-02-04T02:30:19;21.40;40.80
74359;DHT22;62792;46.236;6.040;2024-02-04T02:35:22;21.50;40.50
74359;DHT22;62792;46.236;6.040;2024-02-04T02:40:29;21.50;40.60
74359;DHT22;62792;46.236;6.040;2024-02-04T02:45:35;21.50;40.60
74359;DHT22;62792;46.236;6.040;2024-02-04T02:50:39;21.40;40.60
74359;DHT22;62792;46.236;6.040;2024-02-04T02:55:44;21.50;40.50
74359;DHT22;62792;46.236;6.040;2024-02-04T03:00:48;21.50;40.40
74359;DHT22;62792;46.236;6.040;2024-02-04T03:05:51;21.40;40.60
74359;DHT22;62792;46.236;6.040;2024-02-04T03:10:55;21.40;40.60
74359;DHT22;62792;46.236;6.040;2024-02-04T03:15:58;21.50;40.40
74359;DHT22;62792;46.236;6.040;2024-02-04T03:21:01;21.60;40.60
74359;DHT22;62792;46.236;6.040;2024-02-04T03:26:06;21.50;40.50
74359;DHT22;62792;46.236;6.040;2024-02-04T03:31:09;21.50;40.60
74359;DHT22;62792;46.236;6.040;2024-02-04T03:36:12;21.40;40.50
74359;DHT22;62792;46.236;6.040;2024-02-04T03:41:17;21.40;40.40
74359;DHT22;62792;46.236;6.040;2024-02-04T03:46:20;21.40;40.30
74359;DHT22;62792;46.236;6.040;2024-02-04T03:51:24;21.50;40.40
74359;DHT22;62792;46.236;6.040;2024-02-04T03:56:28;21.50;40.40
74359;DHT22;62792;46.236;6.040;2024-02-04T04:01:31;21.50;40.50
74359;DHT22;62792;46.236;6.040;2024-02-04T04:06:34;21.50;40.40
74359;DHT22;62792;46.236;6.040;2024-02-04T04:11:39;21.40;40.40
74359;DHT22;62792;46.236;6.040;2024-02-04T04:16:42;21.40;40.30
74359;DHT22;62792;46.236;6.040;2024-02-04T04:21:45;21.40;40.50
74359;DHT22;62792;46.236;6.040;2024-02-04T04:26:49;21.40;40.50
74359;DHT22;62792;46.236;6.040;2024-02-04T04:31:52;21.50;40.50
74359;DHT22;62792;46.236;6.040;2024-02-04T04:36:55;21.50;40.50
74359;DHT22;62792;46.236;6.040;2024-02-04T04:41:59;21.50;40.40
74359;DHT22;62792;46.236;6.040;2024-02-04T04:47:02;21.50;40.20
74359;DHT22;62792;46.236;6.040;2024-02-04T04:52:05;21.50;40.30
74359;DHT22;62792;46.236;6.040;2024-02-04T04:57:10;21.40;40.40
74359;DHT22;62792;46.236;6.040;2024-02-04T05:02:13;21.40;40.20
74359;DHT22;62792;46.236;6.040;2024-02-04T05:07:16;21.40;40.10
74359;DHT22;62792;46.236;6.040;2024-02-04T05:12:20;21.40;40.30
74359;DHT22;62792;46.236;6.040;2024-02-04T05:17:23;21.40;40.20
74359;DHT22;62792;46.236;6.040;2024-02-04T05:22:26;21.30;40.10
74359;DHT22;62792;46.236;6.040;2024-02-04T05:27:30;21.40;39.90
74359;DHT22;62792;46.236;6.040;2024-02-04T05:32:33;21.40;40.00
74359;DHT22;62792;46.236;6.040;2024-02-04T05:37:36;21.40;40.10
74359;DHT22;62792;46.236;6.040;2024-02-04T05:42:40;21.40;40.00
74359;DHT22;62792;46.236;6.040;2024-02-04T05:47:43;21.40;39.90
74359;DHT22;62792;46.236;6.040;2024-02-04T05:52:47;21.40;40.00
74359;DHT22;62792;46.236;6.040;2024-02-04T05:57:51;21.40;40.00
74359;DHT22;62792;46.236;6.040;2024-02-04T06:02:54;21.30;40.00
74359;DHT22;62792;46.236;6.040;2024-02-04T06:07:57;21.40;40.00
74359;DHT22;62792;46.236;6.040;2024-02-04T06:13:02;21.40;39.90
74359;DHT22;62792;46.236;6.040;2024-02-04T06:18:05;21.40;40.10
74359;DHT22;62792;46.236;6.040;2024-02-04T06:23:08;21.30;39.90
74359;DHT22;62792;46.236;6.040;2024-02-04T06:28:12;21.40;39.90
74359;DHT22;62792;46.236;6.040;2024-02-04T06:33:15;21.30;39.90
74359;DHT22;62792;46.236;6.040;2024-02-04T06:38:18;21.30;40.00
74359;DHT22;62792;46.236;6.040;2024-02-04T06:43:23;21.30;40.00
74359;DHT22;62792;46.236;6.040;2024-02-04T06:48:26;21.40;39.90
74359;DHT22;62792;46.236;6.040;2024-02-04T06:53:29;21.40;39.80
74359;DHT22;62792;46.236;6.040;2024-02-04T06:58:33;21.30;39.90
74359;DHT22;62792;46.236;6.040;2024-02-04T07:03:36;21.30;39.70
74359;DHT22;62792;46.236;6.040;2024-02-04T07:08:39;21.40;39.90
74359;DHT22;62792;46.236;6.040;2024-02-04T07:13:44;21.30;39.70
74359;DHT22;62792;46.236;6.040;2024-02-04T07:18:47;21.30;39.80
74359;DHT22;62792;46.236;6.040;2024-02-04T07:23:50;21.30;39.70
74359;DHT22;62792;46.236;6.040;2024-02-04T07:28:54;21.40;39.60
74359;DHT22;62792;46.236;6.040;2024-02-04T07:33:57;21.30;39.90
74359;DHT22;62792;46.236;6.040;2024-02-04T07:39:01;21.40;39.70
74359;DHT22;62792;46.236;6.040;2024-02-04T07:44:07;21.40;39.70
74359;DHT22;62792;46.236;6.040;2024-02-04T07:49:10;21.40;39.80
74359;DHT22;62792;46.236;6.040;2024-02-04T07:54:13;21.40;39.60
74359;DHT22;62792;46.236;6.040;2024-02-04T07:59:18;21.30;39.80
74359;DHT22;62792;46.236;6.040;2024-02-04T08:04:21;21.40;39.70
74359;DHT22;62792;46.236;6.040;2024-02-04T08:09:24;21.30;39.70
74359;DHT22;62792;46.236;6.040;2024-02-04T08:14:28;21.40;39.60
74359;DHT22;62792;46.236;6.040;2024-02-04T08:19:31;21.40;39.60
74359;DHT22;62792;46.236;6.040;2024-02-04T08:24:34;21.50;39.60
74359;DHT22;62792;46.236;6.040;2024-02-04T08:29:39;21.40;39.70
74359;DHT22;62792;46.236;6.040;2024-02-04T08:34:42;21.40;39.60
74359;DHT22;62792;46.236;6.040;2024-02-04T08:39:45;21.30;39.70
74359;DHT22;62792;46.236;6.040;2024-02-04T08:44:49;21.50;39.50
74359;DHT22;62792;46.236;6.040;2024-02-04T08:49:53;21.50;39.50
74359;DHT22;62792;46.236;6.040;2024-02-04T08:54:56;21.40;39.60
74359;DHT22;62792;46.236;6.040;2024-02-04T09:00:01;21.40;39.50
74359;DHT22;62792;46.236;6.040;2024-02-04T09:05:05;21.40;39.60
74359;DHT22;62792;46.236;6.040;2024-02-04T09:10:09;21.50;39.60
74359;DHT22;62792;46.236;6.040;2024-02-04T09:15:13;21.50;39.80
74359;DHT22;62792;46.236;6.040;2024-02-04T09:20:16;21.40;39.50
74359;DHT22;62792;46.236;6.040;2024-02-04T09:25:19;21.40;39.80
74359;DHT22;62792;46.236;6.040;2024-02-04T09:30:24;21.40;39.60
74359;DHT22;62792;46.236;6.040;2024-02-04T09:35:27;21.30;40.00
74359;DHT22;62792;46.236;6.040;2024-02-04T09:40:30;21.40;39.70
74359;DHT22;62792;46.236;6.040;2024-02-04T09:45:36;21.40;39.70
74359;DHT22;62792;46.236;6.040;2024-02-04T09:50:39;21.50;39.70
74359;DHT22;62792;46.236;6.040;2024-02-04T09:55:46;21.40;40.00
74359;DHT22;62792;46.236;6.040;2024-02-04T10:00:52;21.30;40.00
74359;DHT22;62792;46.236;6.040;2024-02-04T10:05:56;21.40;39.80
74359;DHT22;62792;46.236;6.040;2024-02-04T10:11:00;21.30;39.90
74359;DHT22;62792;46.236;6.040;2024-02-04T10:16:04;21.30;40.10
74359;DHT22;62792;46.236;6.040;2024-02-04T10:21:15;21.30;40.00
74359;DHT22;62792;46.236;6.040;2024-02-04T10:26:19;21.30;40.10
74359;DHT22;62792;46.236;6.040;2024-02-04T10:31:24;21.30;40.10
74359;DHT22;62792;46.236;6.040;2024-02-04T10:36:29;21.30;40.20
74359;DHT22;62792;46.236;6.040;2024-02-04T10:41:33;21.30;40.10
74359;DHT22;62792;46.236;6.040;2024-02-04T10:46:38;21.30;40.30
74359;DHT22;62792;46.236;6.040;2024-02-04T10:51:42;21.30;40.30
74359;DHT22;62792;46.236;6.040;2024-02-04T10:56:46;21.20;40.20
74359;DHT22;62792;46.236;6.040;2024-02-04T11:01:58;21.20;40.20
74359;DHT22;62792;46.236;6.040;2024-02-04T11:07:01;21.10;40.30
74359;DHT22;62792;46.236;6.040;2024-02-04T11:12:06;21.20;40.50
74359;DHT22;62792;46.236;6.040;2024-02-04T11:17:24;21.30;40.40
74359;DHT22;62792;46.236;6.040;2024-02-04T11:22:45;21.20;40.30
74359;DHT22;62792;46.236;6.040;2024-02-04T11:27:54;21.20;40.40
74359;DHT22;62792;46.236;6.040;2024-02-04T11:33:01;21.20;40.50
74359;DHT22;62792;46.236;6.040;2024-02-04T11:38:04;21.10;40.60
74359;DHT22;62792;46.236;6.040;2024-02-04T11:43:11;21.10;40.70
74359;DHT22;62792;46.236;6.040;2024-02-04T11:48:16;21.20;40.60
74359;DHT22;62792;46.236;6.040;2024-02-04T11:53:19;21.10;40.60
74359;DHT22;62792;46.236;6.040;2024-02-04T11:58:22;21.20;40.50
74359;DHT22;62792;46.236;6.040;2024-02-04T12:03:30;21.20;40.60
74359;DHT22;62792;46.236;6.040;2024-02-04T12:08:35;21.20;40.70
74359;DHT22;62792;46.236;6.040;2024-02-04T12:13:38;21.20;40.50
74359;DHT22;62792;46.236;6.040;2024-02-04T12:18:50;21.20;40.60
74359;DHT22;62792;46.236;6.040;2024-02-04T12:23:54;21.20;40.50
74359;DHT22;62792;46.236;6.040;2024-02-04T12:28:58;21.20;40.60
74359;DHT22;62792;46.236;6.040;2024-02-04T12:34:02;21.10;40.60
74359;DHT22;62792;46.236;6.040;2024-02-04T12:39:06;21.20;40.80
74359;DHT22;62792;46.236;6.040;2024-02-04T12:44:11;21.20;40.70
74359;DHT22;62792;46.236;6.040;2024-02-04T12:49:18;21.20;40.70
74359;DHT22;62792;46.236;6.040;2024-02-04T12:54:22;21.10;40.60
74359;DHT22;62792;46.236;6.040;2024-02-04T12:59:26;21.20;40.80
74359;DHT22;62792;46.236;6.040;2024-02-04T13:04:34;21.20;40.70
74359;DHT22;62792;46.236;6.040;2024-02-04T13:09:38;21.10;40.90
74359;DHT22;62792;46.236;6.040;2024-02-04T13:14:41;21.20;40.90
74359;DHT22;62792;46.236;6.040;2024-02-04T13:19:47;21.10;40.90
74359;DHT22;62792;46.236;6.040;2024-02-04T13:24:50;21.10;41.00
74359;DHT22;62792;46.236;6.040;2024-02-04T13:29:53;21.40;42.30
74359;DHT22;62792;46.236;6.040;2024-02-04T13:34:57;21.60;42.80
74359;DHT22;62792;46.236;6.040;2024-02-04T13:40:14;21.60;42.70
74359;DHT22;62792;46.236;6.040;2024-02-04T13:45:18;21.40;42.60
74359;DHT22;62792;46.236;6.040;2024-02-04T13:50:22;21.30;42.60
74359;DHT22;62792;46.236;6.040;2024-02-04T13:55:25;21.30;42.60
74359;DHT22;62792;46.236;6.040;2024-02-04T14:00:28;21.20;42.30
74359;DHT22;62792;46.236;6.040;2024-02-04T14:05:33;21.20;42.20
74359;DHT22;62792;46.236;6.040;2024-02-04T14:10:36;21.30;42.10
74359;DHT22;62792;46.236;6.040;2024-02-04T14:15:39;21.20;42.20
74359;DHT22;62792;46.236;6.040;2024-02-04T14:20:44;21.30;42.30
74359;DHT22;62792;46.236;6.040;2024-02-04T14:25:47;21.10;42.30
74359;DHT22;62792;46.236;6.040;2024-02-04T14:30:50;21.20;42.20
74359;DHT22;62792;46.236;6.040;2024-02-04T14:35:59;21.20;42.20
74359;DHT22;62792;46.236;6.040;2024-02-04T14:41:02;21.20;42.10
74359;DHT22;62792;46.236;6.040;2024-02-04T14:46:05;21.20;41.90
74359;DHT22;62792;46.236;6.040;2024-02-04T14:51:10;21.20;42.10
74359;DHT22;62792;46.236;6.040;2024-02-04T14:56:13;21.20;42.10
74359;DHT22;62792;46.236;6.040;2024-02-04T15:01:16;21.10;42.20
74359;DHT22;62792;46.236;6.040;2024-02-04T15:06:24;21.10;42.10
74359;DHT22;62792;46.236;6.040;2024-02-04T15:11:27;21.10;42.00
74359;DHT22;62792;46.236;6.040;2024-02-04T15:16:31;21.20;41.90
74359;DHT22;62792;46.236;6.040;2024-02-04T15:21:37;21.20;41.90
74359;DHT22;62792;46.236;6.040;2024-02-04T15:26:41;21.10;42.00
74359;DHT22;62792;46.236;6.040;2024-02-04T15:31:45;21.20;41.70
74359;DHT22;62792;46.236;6.040;2024-02-04T15:36:52;21.20;41.80
74359;DHT22;62792;46.236;6.040;2024-02-04T15:41:55;21.30;41.60
74359;DHT22;62792;46.236;6.040;2024-02-04T15:46:58;21.40;41.50
74359;DHT22;62792;46.236;6.040;2024-02-04T15:52:03;21.60;41.50
74359;DHT22;62792;46.236;6.040;2024-02-04T15:57:08;21.60;41.50
74359;DHT22;62792;46.236;6.040;2024-02-04T16:02:12;22.30;40.80
74359;DHT22;62792;46.236;6.040;2024-02-04T16:07:17;22.30;40.60
74359;DHT22;62792;46.236;6.040;2024-02-04T16:12:21;21.90;40.90
74359;DHT22;62792;46.236;6.040;2024-02-04T16:17:25;21.80;41.20
74359;DHT22;62792;46.236;6.040;2024-02-04T16:22:29;21.50;41.40
74359;DHT22;62792;46.236;6.040;2024-02-04T16:27:33;21.60;41.30
74359;DHT22;62792;46.236;6.040;2024-02-04T16:32:35;21.50;41.30
74359;DHT22;62792;46.236;6.040;2024-02-04T16:37:40;21.50;41.30
74359;DHT22;62792;46.236;6.040;2024-02-04T16:42:43;21.50;41.50
74359;DHT22;62792;46.236;6.040;2024-02-04T16:47:46;21.40;41.70
74359;DHT22;62792;46.236;6.040;2024-02-04T16:52:51;21.40;41.60
74359;DHT22;62792;46.236;6.040;2024-02-04T16:57:54;21.30;41.50
74359;DHT22;62792;46.236;6.040;2024-02-04T17:02:57;21.40;41.50
74359;DHT22;62792;46.236;6.040;2024-02-04T17:08:02;21.40;41.70
74359;DHT22;62792;46.236;6.040;2024-02-04T17:13:06;21.30;41.40
74359;DHT22;62792;46.236;6.040;2024-02-04T17:18:10;21.20;41.60
74359;DHT22;62792;46.236;6.040;2024-02-04T17:23:16;21.30;41.50
74359;DHT22;62792;46.236;6.040;2024-02-04T17:28:22;21.30;41.60
74359;DHT22;62792;46.236;6.040;2024-02-04T17:33:26;21.20;41.50
74359;DHT22;62792;46.236;6.040;2024-02-04T17:38:31;21.20;41.60
74359;DHT22;62792;46.236;6.040;2024-02-04T17:43:34;21.10;41.50
74359;DHT22;62792;46.236;6.040;2024-02-04T17:48:37;21.10;41.60
74359;DHT22;62792;46.236;6.040;2024-02-04T17:53:43;21.10;41.50
74359;DHT22;62792;46.236;6.040;2024-02-04T17:58:46;21.20;41.50
74359;DHT22;62792;46.236;6.040;2024-02-04T18:03:51;21.20;41.50
74359;DHT22;62792;46.236;6.040;2024-02-04T18:08:55;21.20;41.20
74359;DHT22;62792;46.236;6.040;2024-02-04T18:13:58;21.10;41.40
74359;DHT22;62792;46.236;6.040;2024-02-04T18:19:03;21.10;41.40
74359;DHT22;62792;46.236;6.040;2024-02-04T18:24:07;21.10;41.50
74359;DHT22;62792;46.236;6.040;2024-02-04T18:29:10;21.10;41.30
74359;DHT22;62792;46.236;6.040;2024-02-04T18:34:13;21.10;41.40
74359;DHT22;62792;46.236;6.040;2024-02-04T18:39:18;21.10;41.40
74359;DHT22;62792;46.236;6.040;2024-02-04T18:44:21;21.20;41.50
74359;DHT22;62792;46.236;6.040;2024-02-04T18:49:24;21.10;41.50
74359;DHT22;62792;46.236;6.040;2024-02-04T18:54:29;21.00;41.20
74359;DHT22;62792;46.236;6.040;2024-02-04T18:59:33;21.00;41.30
74359;DHT22;62792;46.236;6.040;2024-02-04T19:04:36;21.00;41.30
74359;DHT22;62792;46.236;6.040;2024-02-04T19:09:41;21.00;41.40
74359;DHT22;62792;46.236;6.040;2024-02-04T19:14:44;21.00;41.30
74359;DHT22;62792;46.236;6.040;2024-02-04T19:19:47;21.10;41.20
74359;DHT22;62792;46.236;6.040;2024-02-04T19:24:51;21.00;41.30
74359;DHT22;62792;46.236;6.040;2024-02-04T19:29:54;21.10;41.20
74359;DHT22;62792;46.236;6.040;2024-02-04T19:34:57;21.00;41.30
74359;DHT22;62792;46.236;6.040;2024-02-04T19:40:01;21.00;41.20
74359;DHT22;62792;46.236;6.040;2024-02-04T19:45:05;21.00;41.40
74359;DHT22;62792;46.236;6.040;2024-02-04T19:50:10;21.00;41.40
74359;DHT22;62792;46.236;6.040;2024-02-04T19:55:14;21.00;41.40
74359;DHT22;62792;46.236;6.040;2024-02-04T20:00:18;21.00;41.20
74359;DHT22;62792;46.236;6.040;2024-02-04T20:05:22;21.00;41.40
74359;DHT22;62792;46.236;6.040;2024-02-04T20:10:27;21.10;41.20
74359;DHT22;62792;46.236;6.040;2024-02-04T20:15:30;21.00;41.20
74359;DHT22;62792;46.236;6.040;2024-02-04T20:20:33;21.00;41.00
74359;DHT22;62792;46.236;6.040;2024-02-04T20:25:37;21.00;41.20
74359;DHT22;62792;46.236;6.040;2024-02-04T20:30:42;21.00;41.20
74359;DHT22;62792;46.236;6.040;2024-02-04T20:35:45;21.00;41.20
74359;DHT22;62792;46.236;6.040;2024-02-04T20:40:49;21.00;41.10
74359;DHT22;62792;46.236;6.040;2024-02-04T20:45:52;21.00;41.20
74359;DHT22;62792;46.236;6.040;2024-02-04T20:50:56;21.00;41.10
74359;DHT22;62792;46.236;6.040;2024-02-04T20:56:00;21.00;41.20
74359;DHT22;62792;46.236;6.040;2024-02-04T21:01:04;21.00;41.00
74359;DHT22;62792;46.236;6.040;2024-02-04T21:06:08;21.00;41.20
74359;DHT22;62792;46.236;6.040;2024-02-04T21:11:21;21.10;41.20
74359;DHT22;62792;46.236;6.040;2024-02-04T21:16:25;21.00;41.20
74359;DHT22;62792;46.236;6.040;2024-02-04T21:21:29;21.00;41.20
74359;DHT22;62792;46.236;6.040;2024-02-04T21:26:33;21.00;41.10
74359;DHT22;62792;46.236;6.040;2024-02-04T21:31:38;21.10;41.10
74359;DHT22;62792;46.236;6.040;2024-02-04T21:36:42;21.00;41.10
74359;DHT22;62792;46.236;6.040;2024-02-04T21:41:47;21.00;40.90
74359;DHT22;62792;46.236;6.040;2024-02-04T21:46:51;21.00;41.00
74359;DHT22;62792;46.236;6.040;2024-02-04T21:51:54;20.90;41.00
74359;DHT22;62792;46.236;6.040;2024-02-04T21:56:59;20.90;41.10
74359;DHT22;62792;46.236;6.040;2024-02-04T22:02:04;21.00;41.00
74359;DHT22;62792;46.236;6.040;2024-02-04T22:07:07;21.00;40.90
74359;DHT22;62792;46.236;6.040;2024-02-04T22:12:12;21.00;40.70
74359;DHT22;62792;46.236;6.040;2024-02-04T22:17:15;21.00;40.90
74359;DHT22;62792;46.236;6.040;2024-02-04T22:22:18;20.90;41.00
74359;DHT22;62792;46.236;6.040;2024-02-04T22:27:22;21.00;40.90
74359;DHT22;62792;46.236;6.040;2024-02-04T22:32:25;21.00;41.00
74359;DHT22;62792;46.236;6.040;2024-02-04T22:37:28;20.90;41.00
74359;DHT22;62792;46.236;6.040;2024-02-04T22:42:32;21.00;40.90
74359;DHT22;62792;46.236;6.040;2024-02-04T22:47:35;21.00;41.10
74359;DHT22;62792;46.236;6.040;2024-02-04T22:52:38;21.00;40.70
74359;DHT22;62792;46.236;6.040;2024-02-04T22:57:43;21.00;40.80
74359;DHT22;62792;46.236;6.040;2024-02-04T23:02:46;20.90;41.00
74359;DHT22;62792;46.236;6.040;2024-02-04T23:07:49;21.00;40.90
74359;DHT22;62792;46.236;6.040;2024-02-04T23:12:55;21.00;40.90
74359;DHT22;62792;46.236;6.040;2024-02-04T23:17:59;21.00;40.70
74359;DHT22;62792;46.236;6.040;2024-02-04T23:23:02;21.00;40.60
74359;DHT22;62792;46.236;6.040;2024-02-04T23:28:07;21.00;40.60
74359;DHT22;62792;46.236;6.040;2024-02-04T23:33:10;21.00;40.70
74359;DHT22;62792;46.236;6.040;2024-02-04T23:38:13;21.00;40.60
74359;DHT22;62792;46.236;6.040;2024-02-04T23:43:18;20.90;40.50
74359;DHT22;62792;46.236;6.040;2024-02-04T23:48:21;20.90;40.50
74359;DHT22;62792;46.236;6.040;2024-02-04T23:53:24;20.90;40.50
74359;DHT22;62792;46.236;6.040;2024-02-04T23:58:28;21.00;40.50
